createdAt,value
2023-05-11T00:00:14.308Z,9.745576
2023-05-11T00:01:14.280Z,9.745655
2023-05-11T00:02:14.305Z,9.745533
2023-05-11T00:03:14.419Z,9.745424
2023-05-11T00:04:14.278Z,9.745373
2023-05-11T00:05:14.271Z,9.745643
2023-05-11T00:06:14.235Z,9.745305
2023-05-11T00:07:14.236Z,9.745659
2023-05-11T00:08:16.785Z,9.745426
2023-05-11T00:09:15.239Z,9.745396
2023-05-11T00:10:14.233Z,9.745510
2023-05-11T00:11:14.195Z,9.745435
2023-05-11T00:12:14.209Z,9.745319
2023-05-11T00:13:14.182Z,9.745288
2023-05-11T00:14:14.199Z,9.745393
2023-05-11T00:15:14.173Z,9.745417
2023-05-11T00:16:14.209Z,9.745474
2023-05-11T00:17:14.151Z,9.745451
2023-05-11T00:18:14.175Z,9.745449
2023-05-11T00:19:14.162Z,9.745394
2023-05-11T00:20:14.128Z,9.745420
2023-05-11T00:21:14.118Z,9.745511
2023-05-11T00:22:14.113Z,9.745392
2023-05-11T00:23:14.128Z,9.745375
2023-05-11T00:24:14.124Z,9.745534
2023-05-11T00:25:14.092Z,9.745452
2023-05-11T00:26:14.084Z,9.745483
2023-05-11T00:27:14.067Z,9.745517
2023-05-11T00:28:14.084Z,9.745312
2023-05-11T00:29:14.051Z,9.745406
2023-05-11T00:30:14.045Z,9.745352
2023-05-11T00:31:14.072Z,9.745506
2023-05-11T00:32:14.028Z,9.745450
2023-05-11T00:33:14.040Z,9.745238
2023-05-11T00:34:14.011Z,9.745038
2023-05-11T00:35:14.045Z,9.745418
2023-05-11T00:36:13.999Z,9.745531
2023-05-11T00:37:14.015Z,9.745525
2023-05-11T00:38:14.007Z,9.745503
2023-05-11T00:39:13.970Z,9.745600
2023-05-11T00:40:13.969Z,9.745522
2023-05-11T00:41:13.960Z,9.745478
2023-05-11T00:42:13.967Z,9.745506
2023-05-11T00:43:13.937Z,9.745400
2023-05-11T00:44:13.926Z,9.745364
2023-05-11T00:45:14.944Z,9.745391
2023-05-11T00:46:13.989Z,9.745561
2023-05-11T00:47:13.971Z,9.745520
2023-05-11T00:48:13.914Z,9.745432
2023-05-11T00:49:13.904Z,9.745598
2023-05-11T00:50:13.893Z,9.745375
2023-05-11T00:51:13.908Z,9.745400
2023-05-11T00:52:13.896Z,9.745338
2023-05-11T00:53:13.863Z,9.745312
2023-05-11T00:54:13.860Z,9.745436
2023-05-11T00:55:13.859Z,9.745286
2023-05-11T00:56:13.864Z,9.745469
2023-05-11T00:57:13.838Z,9.745344
2023-05-11T00:58:13.833Z,9.745900
2023-05-11T00:59:13.826Z,9.746042
2023-05-11T01:00:13.814Z,9.745701
2023-05-11T01:01:13.865Z,9.745541
2023-05-11T01:02:13.847Z,9.745570
2023-05-11T01:03:13.807Z,9.745346
2023-05-11T01:04:13.788Z,9.745397
2023-05-11T01:05:13.811Z,9.745296
2023-05-11T01:06:13.806Z,9.745523
2023-05-11T01:07:13.765Z,9.745502
2023-05-11T01:08:13.764Z,9.745440
2023-05-11T01:09:13.744Z,9.745311
2023-05-11T01:10:13.759Z,9.745352
2023-05-11T01:11:13.852Z,9.745381
2023-05-11T01:12:13.717Z,9.745525
2023-05-11T01:13:13.711Z,9.745556
2023-05-11T01:14:13.707Z,9.745373
2023-05-11T01:15:13.729Z,9.745482
2023-05-11T01:16:13.723Z,9.745446
2023-05-11T01:17:13.678Z,9.745441
2023-05-11T01:18:13.674Z,9.745524
2023-05-11T01:19:13.695Z,9.745656
2023-05-11T01:20:13.711Z,9.745668
2023-05-11T01:21:13.652Z,9.745626
2023-05-11T01:22:13.642Z,9.745646
2023-05-11T01:23:13.633Z,9.745388
2023-05-11T01:24:13.660Z,9.745399
2023-05-11T01:25:13.625Z,9.745438
2023-05-11T01:26:13.614Z,9.745474
2023-05-11T01:27:13.605Z,9.745554
2023-05-11T01:28:13.599Z,9.745476
2023-05-11T01:29:13.616Z,9.745548
2023-05-11T01:30:13.579Z,9.745699
2023-05-11T01:31:13.575Z,9.745893
2023-05-11T01:32:13.599Z,9.745664
2023-05-11T01:33:13.600Z,9.745766
2023-05-11T01:34:13.577Z,9.745569
2023-05-11T01:35:13.547Z,9.745463
2023-05-11T01:36:13.541Z,9.745444
2023-05-11T01:37:13.527Z,9.745514
2023-05-11T01:38:13.543Z,9.745533
2023-05-11T01:39:13.517Z,9.745473
2023-05-11T01:40:13.520Z,9.745610
2023-05-11T01:41:13.493Z,9.745518
2023-05-11T01:42:13.489Z,9.745422
2023-05-11T01:43:13.513Z,9.745485
2023-05-11T01:44:13.478Z,9.745670
2023-05-11T01:45:13.476Z,9.745466
2023-05-11T01:46:13.489Z,9.745436
2023-05-11T01:47:13.476Z,9.745340
2023-05-11T01:48:13.476Z,9.745282
2023-05-11T01:49:13.431Z,9.745558
2023-05-11T01:50:13.431Z,9.745549
2023-05-11T01:51:13.419Z,9.745552
2023-05-11T01:52:13.461Z,9.745541
2023-05-11T01:53:13.416Z,9.745543
2023-05-11T01:54:13.400Z,9.745420
2023-05-11T01:55:13.389Z,9.745508
2023-05-11T01:56:13.388Z,9.745626
2023-05-11T01:57:13.404Z,9.745671
2023-05-11T01:58:13.373Z,9.745496
2023-05-11T01:59:13.358Z,9.745670
2023-05-11T02:00:13.356Z,9.745355
2023-05-11T02:01:13.389Z,9.745566
2023-05-11T02:02:13.388Z,9.745539
2023-05-11T02:03:13.385Z,9.745829
2023-05-11T02:04:13.323Z,9.745633
2023-05-11T02:05:13.315Z,9.745744
2023-05-11T02:06:13.403Z,9.745609
2023-05-11T02:07:13.298Z,9.745530
2023-05-11T02:08:13.291Z,9.745470
2023-05-11T02:09:13.286Z,9.745671
2023-05-11T02:10:13.272Z,9.745392
2023-05-11T02:11:13.302Z,9.745416
2023-05-11T02:12:13.262Z,9.745124
2023-05-11T02:13:13.254Z,9.744883
2023-05-11T02:14:13.267Z,9.745308
2023-05-11T02:15:13.233Z,9.745496
2023-05-11T02:16:13.294Z,9.745493
2023-05-11T02:17:13.237Z,9.745533
2023-05-11T02:18:13.212Z,9.745444
2023-05-11T02:19:13.204Z,9.745278
2023-05-11T02:20:13.213Z,9.745438
2023-05-11T02:21:13.220Z,9.745386
2023-05-11T02:22:13.180Z,9.745638
2023-05-11T02:23:13.177Z,9.745367
2023-05-11T02:24:13.164Z,9.745448
2023-05-11T02:25:13.184Z,9.745223
2023-05-11T02:26:13.144Z,9.745415
2023-05-11T02:27:13.145Z,9.745337
2023-05-11T02:28:13.131Z,9.745801
2023-05-11T02:29:13.132Z,9.745708
2023-05-11T02:30:13.147Z,9.745398
2023-05-11T02:31:13.157Z,9.745404
2023-05-11T02:32:13.098Z,9.745576
2023-05-11T02:33:13.095Z,9.745416
2023-05-11T02:34:13.110Z,9.745483
2023-05-11T02:35:13.121Z,9.745537
2023-05-11T02:36:13.095Z,9.745652
2023-05-11T02:37:13.069Z,9.745732
2023-05-11T02:38:13.056Z,9.745662
2023-05-11T02:39:13.075Z,9.745670
2023-05-11T02:40:13.042Z,9.745557
2023-05-11T02:41:13.032Z,9.745473
2023-05-11T02:42:13.025Z,9.745661
2023-05-11T02:43:13.014Z,9.745705
2023-05-11T02:44:13.041Z,9.745826
2023-05-11T02:45:13.030Z,9.745620
2023-05-11T02:46:13.060Z,9.745426
2023-05-11T02:47:12.984Z,9.745462
2023-05-11T02:48:12.983Z,9.745287
2023-05-11T02:49:13.004Z,9.745460
2023-05-11T02:50:12.961Z,9.745642
2023-05-11T02:51:12.977Z,9.745627
2023-05-11T02:52:12.976Z,9.745711
2023-05-11T02:53:12.974Z,9.745750
2023-05-11T02:54:12.982Z,9.745704
2023-05-11T02:55:12.921Z,9.745695
2023-05-11T02:56:12.919Z,9.745788
2023-05-11T02:57:12.906Z,9.745582
2023-05-11T02:58:13.030Z,9.745635
2023-05-11T02:59:12.894Z,9.746170
2023-05-11T03:00:12.916Z,9.746037
2023-05-11T03:01:13.024Z,9.745419
2023-05-11T03:02:12.936Z,9.745469
2023-05-11T03:03:12.982Z,9.745481
2023-05-11T03:04:12.862Z,9.745640
2023-05-11T03:05:12.850Z,9.745514
2023-05-11T03:06:12.834Z,9.745395
2023-05-11T03:07:12.856Z,9.745484
2023-05-11T03:08:12.860Z,9.745625
2023-05-11T03:09:12.819Z,9.745789
2023-05-11T03:10:12.811Z,9.745587
2023-05-11T03:11:12.803Z,9.745329
2023-05-11T03:12:12.816Z,9.745372
2023-05-11T03:13:12.782Z,9.745552
2023-05-11T03:14:12.776Z,9.745677
2023-05-11T03:15:12.785Z,9.745630
2023-05-11T03:16:12.803Z,9.745629
2023-05-11T03:17:12.773Z,9.745613
2023-05-11T03:18:12.802Z,9.745931
2023-05-11T03:19:12.733Z,9.746003
2023-05-11T03:20:12.728Z,9.745832
2023-05-11T03:21:12.753Z,9.745782
2023-05-11T03:22:12.740Z,9.745687
2023-05-11T03:23:12.714Z,9.745522
2023-05-11T03:24:12.696Z,9.745586
2023-05-11T03:25:12.698Z,9.745622
2023-05-11T03:26:12.709Z,9.745427
2023-05-11T03:27:12.686Z,9.745514
2023-05-11T03:28:12.661Z,9.745214
2023-05-11T03:29:12.656Z,9.745521
2023-05-11T03:30:12.653Z,9.745671
2023-05-11T03:31:12.693Z,9.745615
2023-05-11T03:32:12.697Z,9.745541
2023-05-11T03:33:12.727Z,9.745658
2023-05-11T03:34:12.611Z,9.745371
2023-05-11T03:35:12.617Z,9.745599
2023-05-11T03:36:12.634Z,9.745435
2023-05-11T03:37:12.605Z,9.745646
2023-05-11T03:38:12.589Z,9.745523
2023-05-11T03:39:12.600Z,9.745679
2023-05-11T03:40:12.597Z,9.745751
2023-05-11T03:41:12.601Z,9.745677
2023-05-11T03:42:12.573Z,9.745632
2023-05-11T03:43:12.584Z,9.745355
2023-05-11T03:44:12.573Z,9.745453
2023-05-11T03:45:12.563Z,9.745566
2023-05-11T03:46:12.580Z,9.745403
2023-05-11T03:47:12.520Z,9.745628
2023-05-11T03:48:12.516Z,9.745715
2023-05-11T03:49:13.881Z,9.745050
2023-05-11T03:50:13.565Z,9.745436
2023-05-11T03:51:12.489Z,9.745468
2023-05-11T03:52:12.495Z,9.745509
2023-05-11T03:53:12.483Z,9.745529
2023-05-11T03:54:12.509Z,9.745501
2023-05-11T03:55:12.484Z,9.745582
2023-05-11T03:56:12.451Z,9.745341
2023-05-11T03:57:12.443Z,9.745297
2023-05-11T03:58:12.437Z,9.745574
2023-05-11T03:59:12.457Z,9.745357
2023-05-11T04:00:12.414Z,9.745634
2023-05-11T04:01:12.411Z,9.745454
2023-05-11T04:02:12.437Z,9.745550
2023-05-11T04:03:12.560Z,9.745493
2023-05-11T04:04:12.441Z,9.745443
2023-05-11T04:05:12.410Z,9.745407
2023-05-11T04:06:12.365Z,9.745493
2023-05-11T04:07:12.363Z,9.745523
2023-05-11T04:08:12.355Z,9.745531
2023-05-11T04:09:12.390Z,9.745564
2023-05-11T04:10:12.348Z,9.745425
2023-05-11T04:11:12.327Z,9.745666
2023-05-11T04:12:12.320Z,9.745575
2023-05-11T04:13:12.342Z,9.745581
2023-05-11T04:14:12.334Z,9.745349
2023-05-11T04:15:12.306Z,9.745564
2023-05-11T04:16:12.361Z,9.745614
2023-05-11T04:17:12.291Z,9.745577
2023-05-11T04:18:12.332Z,9.745522
2023-05-11T04:19:12.266Z,9.745511
2023-05-11T04:20:12.274Z,9.745456
2023-05-11T04:21:12.250Z,9.745442
2023-05-11T04:22:12.275Z,9.745492
2023-05-11T04:23:12.266Z,9.745622
2023-05-11T04:24:12.226Z,9.745222
2023-05-11T04:25:12.218Z,9.745193
2023-05-11T04:26:12.229Z,9.745942
2023-05-11T04:27:12.205Z,9.745670
2023-05-11T04:28:12.216Z,9.745359
2023-05-11T04:29:12.191Z,9.745449
2023-05-11T04:30:12.191Z,9.745409
2023-05-11T04:31:12.211Z,9.745079
2023-05-11T04:32:12.190Z,9.745791
2023-05-11T04:33:12.188Z,9.745506
2023-05-11T04:34:12.162Z,9.745624
2023-05-11T04:35:12.139Z,9.745791
2023-05-11T04:36:12.136Z,9.745296
2023-05-11T04:37:12.171Z,9.745467
2023-05-11T04:38:12.119Z,9.745130
2023-05-11T04:39:12.123Z,9.744507
2023-05-11T04:40:12.113Z,9.745238
2023-05-11T04:41:12.112Z,9.745361
2023-05-11T04:42:12.117Z,9.745253
2023-05-11T04:43:12.106Z,9.745478
2023-05-11T04:44:12.084Z,9.745474
2023-05-11T04:45:12.061Z,9.744991
2023-05-11T04:46:12.271Z,9.745403
2023-05-11T04:47:12.074Z,9.745406
2023-05-11T04:48:12.094Z,9.745755
2023-05-11T04:49:12.030Z,9.745631
2023-05-11T04:50:12.017Z,9.745395
2023-05-11T04:51:12.053Z,9.745548
2023-05-11T04:52:12.033Z,9.745509
2023-05-11T04:53:12.001Z,9.745374
2023-05-11T04:54:11.998Z,9.745141
2023-05-11T04:55:12.004Z,9.745019
2023-05-11T04:56:12.003Z,9.745624
2023-05-11T04:57:11.969Z,9.745802
2023-05-11T04:58:11.956Z,9.746025
2023-05-11T04:59:11.954Z,9.745933
2023-05-11T05:00:12.081Z,9.745959
2023-05-11T05:01:11.990Z,9.745433
2023-05-11T05:02:11.931Z,9.745269
2023-05-11T05:03:11.919Z,9.745352
2023-05-11T05:04:12.071Z,9.745605
2023-05-11T05:05:11.939Z,9.745593
2023-05-11T05:06:11.916Z,9.745396
2023-05-11T05:07:12.898Z,9.745061
2023-05-11T05:08:11.886Z,9.745420
2023-05-11T05:09:11.876Z,9.745366
2023-05-11T05:10:11.946Z,9.745229
2023-05-11T05:11:11.868Z,9.745226
2023-05-11T05:12:11.856Z,9.745324
2023-05-11T05:13:11.843Z,9.745349
2023-05-11T05:14:11.835Z,9.745561
2023-05-11T05:15:12.091Z,9.745285
2023-05-11T05:16:11.909Z,9.745258
2023-05-11T05:17:11.886Z,9.745452
2023-05-11T05:18:11.841Z,9.745263
2023-05-11T05:19:11.822Z,9.745377
2023-05-11T05:20:11.812Z,9.745343
2023-05-11T05:21:11.780Z,9.745077
2023-05-11T05:22:11.780Z,9.745258
2023-05-11T05:23:11.777Z,9.745376
2023-05-11T05:24:11.780Z,9.745355
2023-05-11T05:25:11.790Z,9.745480
2023-05-11T05:26:11.768Z,9.745264
2023-05-11T05:27:11.756Z,9.745183
2023-05-11T05:28:11.735Z,9.745354
2023-05-11T05:29:11.766Z,9.745277
2023-05-11T05:30:11.710Z,9.745221
2023-05-11T05:31:11.794Z,9.745196
2023-05-11T05:32:11.703Z,9.745337
2023-05-11T05:33:11.755Z,9.744932
2023-05-11T05:34:13.563Z,9.745262
2023-05-11T05:35:11.673Z,9.745151
2023-05-11T05:36:11.673Z,9.745333
2023-05-11T05:37:11.653Z,9.745364
2023-05-11T05:38:11.694Z,9.745500
2023-05-11T05:39:11.671Z,9.745620
2023-05-11T05:40:11.636Z,9.745544
2023-05-11T05:41:11.626Z,9.745247
2023-05-11T05:42:11.617Z,9.745427
2023-05-11T05:43:11.642Z,9.745308
2023-05-11T05:44:11.621Z,9.745437
2023-05-11T05:45:13.200Z,9.745486
2023-05-11T05:46:11.598Z,9.745446
2023-05-11T05:47:11.579Z,9.745428
2023-05-11T05:48:11.602Z,9.745014
2023-05-11T05:49:11.561Z,9.745209
2023-05-11T05:50:11.562Z,9.745460
2023-05-11T05:51:11.545Z,9.745189
2023-05-11T05:52:11.566Z,9.745277
2023-05-11T05:53:11.572Z,9.745044
2023-05-11T05:54:11.532Z,9.745326
2023-05-11T05:55:11.525Z,9.745442
2023-05-11T05:56:11.518Z,9.745200
2023-05-11T05:57:13.167Z,9.745322
2023-05-11T05:58:11.489Z,9.745522
2023-05-11T05:59:11.483Z,9.745491
2023-05-11T06:00:11.466Z,9.745673
2023-05-11T06:01:11.467Z,9.745743
2023-05-11T06:02:11.535Z,9.745687
2023-05-11T06:03:11.542Z,9.745643
2023-05-11T06:04:11.567Z,9.745662
2023-05-11T06:05:11.440Z,9.745624
2023-05-11T06:06:11.451Z,9.745360
2023-05-11T06:07:11.439Z,9.745465
2023-05-11T06:08:11.633Z,9.745457
2023-05-11T06:09:11.417Z,9.745479
2023-05-11T06:10:11.398Z,9.745307
2023-05-11T06:11:11.415Z,9.745428
2023-05-11T06:12:11.382Z,9.745288
2023-05-11T06:13:11.381Z,9.745439
2023-05-11T06:14:11.374Z,9.745961
2023-05-11T06:15:11.349Z,9.745658
2023-05-11T06:16:11.409Z,9.745463
2023-05-11T06:17:11.353Z,9.745628
2023-05-11T06:18:11.356Z,9.745338
2023-05-11T06:19:11.375Z,9.745435
2023-05-11T06:20:11.331Z,9.745461
2023-05-11T06:21:11.335Z,9.745465
2023-05-11T06:22:11.301Z,9.745662
2023-05-11T06:23:11.284Z,9.745592
2023-05-11T06:24:11.281Z,9.745553
2023-05-11T06:25:11.293Z,9.745595
2023-05-11T06:26:11.260Z,9.745340
2023-05-11T06:27:11.258Z,9.745526
2023-05-11T06:28:11.247Z,9.745542
2023-05-11T06:29:11.241Z,9.745538
2023-05-11T06:30:11.254Z,9.745481
2023-05-11T06:31:11.263Z,9.745563
2023-05-11T06:32:11.215Z,9.745482
2023-05-11T06:33:11.217Z,9.745511
2023-05-11T06:34:11.203Z,9.745418
2023-05-11T06:35:11.217Z,9.745524
2023-05-11T06:36:11.183Z,9.745574
2023-05-11T06:37:11.186Z,9.745535
2023-05-11T06:38:11.163Z,9.745541
2023-05-11T06:39:11.193Z,9.745577
2023-05-11T06:40:11.170Z,9.745683
2023-05-11T06:41:11.226Z,9.745468
2023-05-11T06:42:11.163Z,9.745099
2023-05-11T06:43:11.133Z,9.745511
2023-05-11T06:44:11.143Z,9.745937
2023-05-11T06:45:11.153Z,9.746122
2023-05-11T06:46:11.154Z,9.745990
2023-05-11T06:47:11.108Z,9.745706
2023-05-11T06:48:11.116Z,9.745662
2023-05-11T06:49:11.115Z,9.745890
2023-05-11T06:50:11.077Z,9.745833
2023-05-11T06:51:11.067Z,9.745635
2023-05-11T06:52:11.064Z,9.745793
2023-05-11T06:53:11.075Z,9.745941
2023-05-11T06:54:11.067Z,9.745927
2023-05-11T06:55:11.042Z,9.745911
2023-05-11T06:56:11.028Z,9.746042
2023-05-11T06:57:12.662Z,9.745612
2023-05-11T06:58:11.058Z,9.745635
2023-05-11T06:59:11.006Z,9.745628
2023-05-11T07:00:11.004Z,9.745614
2023-05-11T07:01:11.016Z,9.745664
2023-05-11T07:02:10.988Z,9.745900
2023-05-11T07:03:11.493Z,9.745633
2023-05-11T07:04:11.035Z,9.745826
2023-05-11T07:05:10.961Z,9.745647
2023-05-11T07:06:10.963Z,9.745645
2023-05-11T07:07:10.968Z,9.745738
2023-05-11T07:08:10.970Z,9.745583
2023-05-11T07:09:10.929Z,9.745760
2023-05-11T07:10:10.918Z,9.745719
2023-05-11T07:11:10.913Z,9.745728
2023-05-11T07:12:10.928Z,9.745886
2023-05-11T07:13:10.901Z,9.745769
2023-05-11T07:14:10.895Z,9.746019
2023-05-11T07:15:10.885Z,9.745844
2023-05-11T07:16:10.878Z,9.745466
2023-05-11T07:17:10.960Z,9.745517
2023-05-11T07:18:10.900Z,9.745615
2023-05-11T07:19:10.969Z,9.745567
2023-05-11T07:20:10.845Z,9.745543
2023-05-11T07:21:10.864Z,9.745378
2023-05-11T07:22:12.185Z,9.745599
2023-05-11T07:23:10.822Z,9.745578
2023-05-11T07:24:10.811Z,9.745575
2023-05-11T07:25:10.807Z,9.745573
2023-05-11T07:26:10.818Z,9.744753
2023-05-11T07:27:10.803Z,9.745214
2023-05-11T07:28:10.778Z,9.745411
2023-05-11T07:29:10.851Z,9.745481
2023-05-11T07:30:10.793Z,9.745356
2023-05-11T07:31:10.812Z,9.745460
2023-05-11T07:32:10.745Z,9.745625
2023-05-11T07:33:10.781Z,9.745580
2023-05-11T07:34:10.745Z,9.745696
2023-05-11T07:35:10.720Z,9.745453
2023-05-11T07:36:10.734Z,9.745650
2023-05-11T07:37:10.703Z,9.745463
2023-05-11T07:38:10.710Z,9.745427
2023-05-11T07:39:10.740Z,9.745355
2023-05-11T07:40:10.714Z,9.745568
2023-05-11T07:41:12.505Z,9.745472
2023-05-11T07:42:11.691Z,9.745408
2023-05-11T07:43:10.668Z,9.745474
2023-05-11T07:44:10.655Z,9.745420
2023-05-11T07:45:10.672Z,9.745539
2023-05-11T07:46:10.680Z,9.745708
2023-05-11T07:47:10.627Z,9.745708
2023-05-11T07:48:10.652Z,9.745585
2023-05-11T07:49:17.235Z,9.745378
2023-05-11T07:50:12.674Z,9.745759
2023-05-11T07:51:10.599Z,9.745764
2023-05-11T07:52:10.593Z,9.745740
2023-05-11T07:53:10.586Z,9.745499
2023-05-11T07:54:10.603Z,9.745315
2023-05-11T07:55:10.598Z,9.745468
2023-05-11T07:56:10.571Z,9.746111
2023-05-11T07:57:10.570Z,9.746305
2023-05-11T07:58:10.547Z,9.745799
2023-05-11T07:59:10.565Z,9.746126
2023-05-11T08:00:11.228Z,9.745519
2023-05-11T08:01:11.892Z,9.745747
2023-05-11T08:02:12.337Z,9.745476
2023-05-11T08:03:11.523Z,9.745347
2023-05-11T08:04:10.531Z,9.745426
2023-05-11T08:05:10.506Z,9.745436
2023-05-11T08:06:10.513Z,9.745617
2023-05-11T08:07:10.477Z,9.745683
2023-05-11T08:08:10.492Z,9.745629
2023-05-11T08:09:10.487Z,9.745502
2023-05-11T08:10:10.468Z,9.745615
2023-05-11T08:11:10.466Z,9.745785
2023-05-11T08:12:10.447Z,9.745678
2023-05-11T08:13:10.456Z,9.745604
2023-05-11T08:14:10.424Z,9.745739
2023-05-11T08:15:10.422Z,9.746288
2023-05-11T08:16:10.433Z,9.746971
2023-05-11T08:17:11.404Z,9.746368
2023-05-11T08:18:10.443Z,9.746552
2023-05-11T08:19:10.416Z,9.746416
2023-05-11T08:20:10.386Z,9.746428
2023-05-11T08:21:10.391Z,9.746182
2023-05-11T08:22:10.405Z,9.745870
2023-05-11T08:23:10.394Z,9.745826
2023-05-11T08:24:10.352Z,9.745541
2023-05-11T08:25:10.355Z,9.745707
2023-05-11T08:26:10.328Z,9.745707
2023-05-11T08:27:10.354Z,9.745707
2023-05-11T08:28:10.323Z,9.745399
2023-05-11T08:29:10.329Z,9.745463
2023-05-11T08:30:11.779Z,9.745463
2023-05-11T08:31:11.304Z,9.745400
2023-05-11T08:32:10.466Z,9.745456
2023-05-11T08:33:29.147Z,9.745442
2023-05-11T08:34:19.168Z,9.745481
2023-05-11T08:35:12.316Z,9.745301
2023-05-11T08:36:10.267Z,9.745943
2023-05-11T08:37:10.273Z,9.746168
2023-05-11T08:38:10.242Z,9.745777
2023-05-11T08:39:10.227Z,9.745589
2023-05-11T08:40:11.016Z,9.745284
2023-05-11T08:41:10.330Z,9.745749
2023-05-11T08:42:10.253Z,9.745935
2023-05-11T08:43:10.201Z,9.746001
2023-05-11T08:44:10.212Z,9.745921
2023-05-11T08:45:10.190Z,9.745670
2023-05-11T08:46:10.227Z,9.745589
2023-05-11T08:48:11.192Z,9.745823
2023-05-11T08:49:10.171Z,9.745833
2023-05-11T08:50:10.151Z,9.746013
2023-05-11T08:51:10.163Z,9.745943
2023-05-11T08:52:10.128Z,9.745807
2023-05-11T08:53:10.133Z,9.745551
2023-05-11T08:54:10.170Z,9.745504
2023-05-11T08:55:10.175Z,9.745426
2023-05-11T08:56:10.128Z,9.745468
2023-05-11T08:57:10.097Z,9.745605
2023-05-11T08:58:10.098Z,9.745548
2023-05-11T08:59:10.081Z,9.745607
2023-05-11T09:00:10.096Z,9.745577
2023-05-11T09:01:10.090Z,9.745550
2023-05-11T09:02:10.056Z,9.745499
2023-05-11T09:03:10.112Z,9.745471
2023-05-11T09:04:10.037Z,9.745404
2023-05-11T09:05:10.095Z,9.745502
2023-05-11T09:06:10.022Z,9.745497
2023-05-11T09:07:10.020Z,9.745582
2023-05-11T09:08:10.013Z,9.745552
2023-05-11T09:09:10.024Z,9.745601
2023-05-11T09:10:11.566Z,9.745387
2023-05-11T09:11:10.010Z,9.745409
2023-05-11T09:12:09.999Z,9.745497
2023-05-11T09:13:09.962Z,9.745603
2023-05-11T09:14:09.999Z,9.745542
2023-05-11T09:15:09.957Z,9.745497
2023-05-11T09:16:23.362Z,9.745457
2023-05-11T09:17:11.991Z,9.745457
2023-05-11T09:18:09.969Z,9.745549
2023-05-11T09:19:10.011Z,9.745461
2023-05-11T09:20:09.917Z,9.745631
2023-05-11T09:21:09.900Z,9.745742
2023-05-11T09:22:09.908Z,9.745791
2023-05-11T09:23:09.916Z,9.745861
2023-05-11T09:24:09.910Z,9.745698
2023-05-11T09:25:09.872Z,9.745807
2023-05-11T09:26:09.862Z,9.745740
2023-05-11T09:27:09.920Z,9.745661
2023-05-11T09:29:10.846Z,9.745725
2023-05-11T09:30:09.846Z,9.745620
2023-05-11T09:31:09.858Z,9.745604
2023-05-11T09:32:09.815Z,9.745709
2023-05-11T09:33:09.875Z,9.745605
2023-05-11T09:34:09.824Z,9.745532
2023-05-11T09:35:09.800Z,9.745553
2023-05-11T09:36:09.782Z,9.745340
2023-05-11T09:37:09.777Z,9.745658
2023-05-11T09:38:09.807Z,9.745584
2023-05-11T09:39:15.533Z,9.745604
2023-05-11T09:40:25.874Z,9.745570
2023-05-11T09:41:11.755Z,9.745397
2023-05-11T09:42:09.776Z,9.745468
2023-05-11T09:43:09.759Z,9.745353
2023-05-11T09:44:09.749Z,9.745229
2023-05-11T09:45:09.718Z,9.745436
2023-05-11T09:46:09.746Z,9.745436
2023-05-11T09:47:09.746Z,9.745578
2023-05-11T09:48:09.739Z,9.745186
2023-05-11T09:49:09.685Z,9.745344
2023-05-11T09:50:09.700Z,9.745233
2023-05-11T09:51:09.671Z,9.745146
2023-05-11T09:52:09.710Z,9.745378
2023-05-11T09:53:09.662Z,9.745228
2023-05-11T09:54:09.646Z,9.745173
2023-05-11T09:55:09.640Z,9.745201
2023-05-11T09:56:09.648Z,9.745482
2023-05-11T09:57:09.935Z,9.745244
2023-05-11T09:58:09.623Z,9.745271
2023-05-11T09:59:09.613Z,9.745394
2023-05-11T10:00:09.610Z,9.745502
2023-05-11T10:01:09.649Z,9.745279
2023-05-11T10:02:09.609Z,9.745133
2023-05-11T10:03:09.656Z,9.745171
2023-05-11T10:04:23.205Z,9.745307
2023-05-11T10:05:11.560Z,9.745560
2023-05-11T10:06:09.598Z,9.745168
2023-05-11T10:07:09.548Z,9.745322
2023-05-11T10:08:09.561Z,9.745260
2023-05-11T10:09:09.585Z,9.745309
2023-05-11T10:10:09.546Z,9.745386
2023-05-11T10:11:09.538Z,9.745241
2023-05-11T10:12:09.516Z,9.745306
2023-05-11T10:13:09.509Z,9.745285
2023-05-11T10:14:09.494Z,9.745285
2023-05-11T10:15:09.509Z,9.745219
2023-05-11T10:16:09.611Z,9.745236
2023-05-11T10:17:09.492Z,9.745295
2023-05-11T10:18:09.571Z,9.745397
2023-05-11T10:19:09.709Z,9.745246
2023-05-11T10:20:09.476Z,9.745232
2023-05-11T10:21:09.446Z,9.745177
2023-05-11T10:22:09.461Z,9.745260
2023-05-11T10:23:09.436Z,9.745196
2023-05-11T10:24:09.456Z,9.745277
2023-05-11T10:25:09.435Z,9.745412
2023-05-11T10:26:09.418Z,9.745343
2023-05-11T10:27:09.403Z,9.745401
2023-05-11T10:28:09.374Z,9.745211
2023-05-11T10:29:09.409Z,9.745079
2023-05-11T10:30:09.369Z,9.745283
2023-05-11T10:31:09.359Z,9.745312
2023-05-11T10:32:09.391Z,9.745051
2023-05-11T10:33:09.381Z,9.744802
2023-05-11T10:34:09.365Z,9.745594
2023-05-11T10:35:09.330Z,9.745556
2023-05-11T10:36:09.322Z,9.745624
2023-05-11T10:37:09.313Z,9.746188
2023-05-11T10:38:09.323Z,9.745480
2023-05-11T10:39:09.337Z,9.745666
2023-05-11T10:40:09.300Z,9.745564
2023-05-11T10:41:09.278Z,9.745454
2023-05-11T10:42:09.272Z,9.745378
2023-05-11T10:43:09.295Z,9.745534
2023-05-11T10:44:09.284Z,9.745551
2023-05-11T10:45:09.258Z,9.745588
2023-05-11T10:46:09.267Z,9.745535
2023-05-11T10:47:09.239Z,9.745623
2023-05-11T10:48:09.273Z,9.745576
2023-05-11T10:49:09.218Z,9.745538
2023-05-11T10:50:09.212Z,9.745777
2023-05-11T10:51:09.228Z,9.745584
2023-05-11T10:52:09.199Z,9.745545
2023-05-11T10:53:09.226Z,9.745397
2023-05-11T10:54:09.172Z,9.745532
2023-05-11T10:55:09.169Z,9.745435
2023-05-11T10:56:09.165Z,9.745542
2023-05-11T10:57:09.185Z,9.745858
2023-05-11T10:58:09.190Z,9.745725
2023-05-11T10:59:09.151Z,9.745546
2023-05-11T11:00:09.180Z,9.745325
2023-05-11T11:01:09.257Z,9.745479
2023-05-11T11:02:09.167Z,9.745372
2023-05-11T11:03:09.111Z,9.745421
2023-05-11T11:04:09.098Z,9.745639
2023-05-11T11:05:09.125Z,9.745491
2023-05-11T11:06:09.176Z,9.745345
2023-05-11T11:07:09.118Z,9.745533
2023-05-11T11:08:09.071Z,9.745462
2023-05-11T11:09:09.078Z,9.745497
2023-05-11T11:10:09.067Z,9.745431
2023-05-11T11:11:09.082Z,9.745460
2023-05-11T11:12:09.082Z,9.745069
2023-05-11T11:13:09.040Z,9.745283
2023-05-11T11:14:09.030Z,9.745456
2023-05-11T11:15:09.018Z,9.745419
2023-05-11T11:16:09.049Z,9.745710
2023-05-11T11:17:09.046Z,9.745551
2023-05-11T11:18:09.026Z,9.745509
2023-05-11T11:19:09.015Z,9.745175
2023-05-11T11:20:08.994Z,9.744882
2023-05-11T11:21:08.998Z,9.745292
2023-05-11T11:22:08.970Z,9.745543
2023-05-11T11:23:08.960Z,9.745534
2023-05-11T11:24:08.958Z,9.745704
2023-05-11T11:25:08.951Z,9.745436
2023-05-11T11:26:08.963Z,9.745283
2023-05-11T11:27:08.929Z,9.745173
2023-05-11T11:28:08.917Z,9.745317
2023-05-11T11:29:10.019Z,9.745251
2023-05-11T11:30:08.919Z,9.745431
2023-05-11T11:31:08.991Z,9.745718
2023-05-11T11:32:08.888Z,9.745516
2023-05-11T11:33:08.887Z,9.745575
2023-05-11T11:34:08.863Z,9.745583
2023-05-11T11:35:08.894Z,9.745538
2023-05-11T11:36:08.879Z,9.745503
2023-05-11T11:37:08.857Z,9.745702
2023-05-11T11:38:08.844Z,9.745665
2023-05-11T11:39:08.832Z,9.745452
2023-05-11T11:40:14.583Z,9.745579
2023-05-11T11:41:10.818Z,9.745487
2023-05-11T11:42:08.811Z,9.745542
2023-05-11T11:43:08.802Z,9.745515
2023-05-11T11:44:08.794Z,9.745485
2023-05-11T11:45:08.807Z,9.745408
2023-05-11T11:46:08.792Z,9.745346